createdAt,value
2022-11-05T00:05:21.331Z,7.68
2022-11-05T00:14:02.812Z,7.65
2022-11-05T00:22:44.848Z,7.66
2022-11-05T00:31:09.931Z,7.64
2022-11-05T00:39:32.743Z,7.60
2022-11-05T00:48:14.502Z,7.60
2022-11-05T00:56:37.318Z,7.54
2022-11-05T01:05:02.100Z,7.50
2022-11-05T01:13:27.975Z,7.46
2022-11-05T01:21:50.756Z,7.36
2022-11-05T01:30:14.166Z,7.27
2022-11-05T01:38:37.854Z,7.18
2022-11-05T01:47:01.001Z,7.12
2022-11-05T01:55:28.138Z,7.06
2022-11-05T02:03:55.273Z,7.01
2022-11-05T02:12:19.087Z,6.96
2022-11-05T02:20:51.843Z,6.93
2022-11-05T02:29:52.789Z,6.94
2022-11-05T02:38:34.826Z,6.99
2022-11-05T02:47:11.864Z,6.97
2022-11-05T02:55:55.588Z,7.00
2022-11-05T03:04:20.223Z,6.97
2022-11-05T03:12:47.563Z,6.99
2022-11-05T03:21:50.988Z,6.98
2022-11-05T03:30:16.132Z,6.95
2022-11-05T03:38:44.998Z,6.94
2022-11-05T03:47:14.136Z,6.91
2022-11-05T03:55:46.557Z,6.95
2022-11-05T04:04:10.355Z,7.02
2022-11-05T04:12:52.756Z,7.03
2022-11-05T04:21:34.345Z,7.05
2022-11-05T04:30:15.512Z,7.05
2022-11-05T04:38:38.420Z,7.10
2022-11-05T04:47:02.341Z,7.15
2022-11-05T04:55:25.993Z,7.14
2022-11-05T05:03:50.611Z,7.15
2022-11-05T05:12:13.514Z,7.12
2022-11-05T05:20:54.699Z,7.07
2022-11-05T05:29:17.988Z,7.11
2022-11-05T05:37:40.908Z,7.15
2022-11-05T05:46:05.915Z,7.07
2022-11-05T05:54:32.720Z,7.03
2022-11-05T06:02:57.209Z,7.05
2022-11-05T06:11:20.631Z,6.98
2022-11-05T06:19:43.479Z,6.93
2022-11-05T06:28:07.537Z,6.90
2022-11-05T06:36:30.426Z,6.86
2022-11-05T06:44:53.420Z,6.84
2022-11-05T06:53:16.273Z,6.86
2022-11-05T07:01:39.337Z,6.91
2022-11-05T07:10:02.604Z,6.91
2022-11-05T07:18:25.532Z,6.91
2022-11-05T07:26:48.445Z,6.98
2022-11-05T07:35:12.210Z,7.08
2022-11-05T07:43:35.061Z,7.12
2022-11-05T07:51:58.118Z,7.19
2022-11-05T08:00:23.929Z,7.40
2022-11-05T08:08:46.992Z,7.53
2022-11-05T08:17:10.827Z,7.55
2022-11-05T08:25:35.877Z,7.56
2022-11-05T08:34:02.497Z,7.56
2022-11-05T08:42:25.782Z,7.56
2022-11-05T08:50:49.451Z,7.66
2022-11-05T08:59:12.282Z,7.73
2022-11-05T09:07:35.461Z,7.76
2022-11-05T09:15:59.874Z,7.80
2022-11-05T09:24:22.710Z,7.88
2022-11-05T09:32:45.801Z,7.91
2022-11-05T09:41:19.730Z,7.98
2022-11-05T09:49:48.104Z,8.00
2022-11-05T09:58:23.257Z,8.00
2022-11-05T10:07:01.760Z,8.03
2022-11-05T10:15:32.699Z,8.07
2022-11-05T10:23:56.190Z,8.06
2022-11-05T10:32:38.538Z,8.03
2022-11-05T10:41:07.585Z,8.04
2022-11-05T10:49:49.137Z,7.91
2022-11-05T10:58:17.814Z,7.85
2022-11-05T11:06:49.773Z,7.88
2022-11-05T11:15:23.881Z,7.90
2022-11-05T11:23:58.877Z,7.82
2022-11-05T11:32:24.766Z,7.80
2022-11-05T11:40:47.838Z,7.84
2022-11-05T11:49:32.638Z,7.83
2022-11-05T11:58:06.900Z,7.79
2022-11-05T12:06:40.245Z,7.79
2022-11-05T12:15:24.576Z,7.78
2022-11-05T12:24:02.910Z,7.78
2022-11-05T12:32:34.764Z,7.69
2022-11-05T12:41:09.546Z,7.66
2022-11-05T12:49:53.320Z,7.68
2022-11-05T12:58:31.229Z,7.64
2022-11-05T13:06:56.582Z,7.58
2022-11-05T13:15:27.802Z,7.59
2022-11-05T13:23:55.453Z,7.73
2022-11-05T13:32:30.967Z,7.77
2022-11-05T13:41:20.108Z,7.80
2022-11-05T13:50:01.326Z,7.79
2022-11-05T13:58:33.253Z,7.78
2022-11-05T14:07:07.024Z,7.88
2022-11-05T14:15:30.983Z,7.80
2022-11-05T14:23:57.828Z,7.73
2022-11-05T14:32:20.763Z,7.78
2022-11-05T14:40:46.135Z,7.88
2022-11-05T14:49:18.493Z,7.87
2022-11-05T14:57:44.051Z,7.82
2022-11-05T15:06:25.115Z,7.83
2022-11-05T15:14:57.415Z,7.87
2022-11-05T15:23:29.380Z,7.88
2022-11-05T15:31:53.217Z,7.89
2022-11-05T15:40:27.680Z,7.96
2022-11-05T15:48:53.134Z,7.96
2022-11-05T15:57:23.441Z,7.97
2022-11-05T16:05:48.892Z,8.01
2022-11-05T16:14:20.980Z,7.98
2022-11-05T16:22:45.875Z,7.87
2022-11-05T16:31:08.753Z,7.85
2022-11-05T16:39:32.330Z,7.89
2022-11-05T16:47:55.228Z,7.90
2022-11-05T16:56:21.542Z,7.85
2022-11-05T17:04:44.465Z,7.83
2022-11-05T17:13:14.360Z,7.89
2022-11-05T17:21:37.401Z,7.94
2022-11-05T17:30:00.416Z,7.99
2022-11-05T17:38:25.604Z,8.00
2022-11-05T17:46:48.804Z,8.04
2022-11-05T17:55:16.957Z,8.07
2022-11-05T18:03:40.403Z,8.03
2022-11-05T18:12:04.202Z,8.02
2022-11-05T18:20:27.540Z,8.02
2022-11-05T18:28:50.360Z,8.03
2022-11-05T18:37:13.294Z,8.06
2022-11-05T18:45:36.156Z,8.07
2022-11-05T18:54:00.877Z,8.10
2022-11-05T19:02:24.492Z,8.08
2022-11-05T19:10:51.516Z,8.08
2022-11-05T19:19:14.736Z,8.08
2022-11-05T19:27:38.744Z,8.11
2022-11-05T19:36:06.279Z,8.20
2022-11-05T19:44:29.233Z,8.25
2022-11-05T19:52:52.575Z,8.21
2022-11-05T20:01:17.793Z,8.19
2022-11-05T20:09:42.011Z,8.11
2022-11-05T20:18:06.808Z,8.10
2022-11-05T20:26:30.264Z,8.13
2022-11-05T20:34:53.663Z,8.16
2022-11-05T20:43:19.325Z,8.12
2022-11-05T20:51:42.173Z,8.09
2022-11-05T21:00:07.411Z,8.10
2022-11-05T21:08:30.545Z,8.14
2022-11-05T21:16:53.402Z,8.11
2022-11-05T21:25:16.691Z,8.10
2022-11-05T21:33:40.821Z,8.17
2022-11-05T21:42:05.247Z,8.25
2022-11-05T21:50:47.493Z,8.32
2022-11-05T21:59:31.228Z,8.37
2022-11-05T22:07:54.192Z,8.39
2022-11-05T22:16:17.110Z,8.36
2022-11-05T22:24:41.229Z,8.38
2022-11-05T22:33:04.185Z,8.36
2022-11-05T22:41:27.423Z,8.36
2022-11-05T22:49:50.931Z,8.37
2022-11-05T22:58:14.089Z,8.36
2022-11-05T23:06:56.187Z,8.38
2022-11-05T23:15:37.824Z,8.42
2022-11-05T23:24:04.345Z,8.48
2022-11-05T23:32:29.891Z,8.51
2022-11-05T23:41:15.930Z,8.45
2022-11-05T23:49:39.084Z,8.44
2022-11-05T23:58:02.552Z,8.45
